Time;durP1;ratioP1;P1;durP2;ratioP2;P2;SDS_P1;SDS_P2;PMS_P1;PMS_P2;Temp;Humidity;BMP_temperature;BMP_pressure;BME280_temperature;BME280_humidity;BME280_pressure;Samples;Min_cycle;Max_cycle;Signal;HPM_P1;HPM_P2
2022/04/29 00:02:14;;;;;;;;;;;;;;;12.89;72.59;95368.66;4897844;29;19934;-83
2022/04/29 00:04:42;;;;;;;;;;;;;;;12.94;72.27;95372.56;4897956;29;19927;-84
2022/04/29 00:07:09;;;;;;;;;;;;;;;12.92;72.19;95374.50;4897738;29;20026;-84
2022/04/29 00:09:36;;;;;;;;;;;;;;;12.93;71.76;95362.16;4898076;29;19935;-84
2022/04/29 00:12:03;;;;;;;;;;;;;;;12.86;72.00;95372.41;4897471;29;20035;-83
2022/04/29 00:14:31;;;;;;;;;;;;;;;12.87;72.26;95367.97;4896944;29;19928;-84
2022/04/29 00:16:58;;;;;;;;;;;;;;;12.77;72.49;95375.00;4897938;29;19927;-84
2022/04/29 00:19:25;;;;;;;;;;;;;;;12.70;72.40;95372.03;4897526;29;19927;-84
2022/04/29 00:21:52;;;;;;;;;;;;;;;12.66;72.21;95362.72;4897620;29;20311;-84
2022/04/29 00:24:18;;;;;;;;;;;;;;;12.71;72.80;95368.44;4897780;29;19927;-84
2022/04/29 00:26:45;;;;;;;;;;;;;;;12.67;72.96;95367.03;4897539;29;19934;-83
2022/04/29 00:29:11;;;;;;;;;;;;;;;12.60;73.61;95366.72;4897585;29;20303;-83
2022/04/29 00:31:39;;;;;;;;;;;;;;;12.47;74.12;95360.00;4897451;29;19927;-84
2022/04/29 00:34:06;;;;;;;;;;;;;;;12.45;74.59;95359.31;4897582;29;19938;-84
2022/04/29 00:36:33;;;;;;;;;;;;;;;12.40;73.54;95363.13;4897528;29;19935;-83
2022/04/29 00:38:59;;;;;;;;;;;;;;;12.40;74.02;95370.19;4897402;29;19934;-84
2022/04/29 00:41:26;;;;;;;;;;;;;;;12.46;75.65;95364.44;4897543;29;19932;-84
2022/04/29 00:43:59;;;;;;;;;;;;;;;12.43;74.68;95362.03;4897294;29;19927;-83
2022/04/29 00:46:26;;;;;;;;;;;;;;;12.39;74.86;95353.56;4897555;29;19939;-83
2022/04/29 00:48:54;;;;;;;;;;;;;;;12.40;75.27;95354.41;4897680;29;19927;-84
2022/04/29 00:51:20;;;;;;;;;;;;;;;12.51;74.93;95353.50;4897298;29;19935;-84
2022/04/29 00:53:47;;;;;;;;;;;;;;;12.51;74.07;95356.16;4897383;29;19928;-83
2022/04/29 00:56:16;;;;;;;;;;;;;;;12.49;74.29;95342.28;4910748;29;19927;-84
2022/04/29 00:58:44;;;;;;;;;;;;;;;12.40;74.11;95354.41;4897220;29;19934;-83
2022/04/29 01:01:11;;;;;;;;;;;;;;;12.26;74.85;95345.06;4897466;29;20300;-84
2022/04/29 01:03:39;;;;;;;;;;;;;;;12.28;74.69;95337.88;4897208;29;19934;-83
2022/04/29 01:06:10;;;;;;;;;;;;;;;12.36;75.10;95347.75;4897370;29;19935;-84
2022/04/29 01:08:37;;;;;;;;;;;;;;;12.37;74.73;95344.97;4897312;29;19938;-83
2022/04/29 01:11:03;;;;;;;;;;;;;;;12.47;74.94;95338.94;4899799;29;20384;-84
2022/04/29 01:13:30;;;;;;;;;;;;;;;12.44;74.41;95334.78;4898737;29;19934;-84
2022/04/29 01:15:57;;;;;;;;;;;;;;;12.46;75.05;95329.38;4900540;29;19951;-84
2022/04/29 01:18:24;;;;;;;;;;;;;;;12.45;73.97;95340.88;4900937;29;20194;-84
2022/04/29 01:21:01;;;;;;;;;;;;;;;12.48;73.98;95340.63;4900850;29;19931;-84
2022/04/29 01:23:29;;;;;;;;;;;;;;;12.52;73.73;95331.50;4900547;29;19984;-83
2022/04/29 01:25:56;;;;;;;;;;;;;;;12.55;74.00;95339.13;4900430;29;20404;-84
2022/04/29 01:28:23;;;;;;;;;;;;;;;12.49;73.82;95335.22;4900580;29;20400;-84
2022/04/29 01:30:51;;;;;;;;;;;;;;;12.50;74.12;95342.16;4900501;29;20001;-84
2022/04/29 01:33:18;;;;;;;;;;;;;;;12.50;73.45;95336.06;4900418;29;20370;-83
2022/04/29 01:35:46;;;;;;;;;;;;;;;12.53;73.68;95338.41;4900581;29;20018;-84
2022/04/29 01:38:12;;;;;;;;;;;;;;;12.60;72.56;95329.03;4900157;29;20031;-84
2022/04/29 01:40:40;;;;;;;;;;;;;;;12.63;73.06;95331.41;4898446;29;20323;-84
2022/04/29 01:43:07;;;;;;;;;;;;;;;12.65;73.29;95332.94;4900332;29;19927;-83
2022/04/29 01:45:33;;;;;;;;;;;;;;;12.62;73.56;95332.38;4900506;29;19938;-83
2022/04/29 01:48:00;;;;;;;;;;;;;;;12.62;73.92;95329.72;4900135;29;19934;-84
2022/04/29 01:50:27;;;;;;;;;;;;;;;12.56;73.38;95332.91;4900845;29;19934;-83
2022/04/29 01:52:53;;;;;;;;;;;;;;;12.58;73.40;95338.84;4899983;29;20026;-83
2022/04/29 01:55:20;;;;;;;;;;;;;;;12.45;73.73;95340.88;4900181;29;19927;-84
2022/04/29 01:57:49;;;;;;;;;;;;;;;12.44;74.27;95337.41;4900283;29;19927;-83
2022/04/29 02:00:17;;;;;;;;;;;;;;;12.44;74.94;95339.22;4900046;29;20013;-83
2022/04/29 02:02:44;;;;;;;;;;;;;;;12.37;74.89;95334.44;4900112;29;20011;-83
2022/04/29 02:05:11;;;;;;;;;;;;;;;12.39;74.63;95337.78;4899846;29;20383;-83
2022/04/29 02:07:37;;;;;;;;;;;;;;;12.39;74.71;95332.50;4900007;29;19927;-84
2022/04/29 02:10:04;;;;;;;;;;;;;;;12.39;75.32;95343.03;4900137;29;19936;-83
2022/04/29 02:12:31;;;;;;;;;;;;;;;12.42;75.30;95336.69;4897641;29;19943;-84
2022/04/29 02:14:59;;;;;;;;;;;;;;;12.47;76.01;95339.78;4900052;29;20272;-84
2022/04/29 02:17:25;;;;;;;;;;;;;;;12.44;74.53;95340.06;4899870;29;19932;-83
2022/04/29 02:19:52;;;;;;;;;;;;;;;12.52;75.50;95342.84;4899572;29;19927;-84
2022/04/29 02:22:19;;;;;;;;;;;;;;;12.56;74.62;95344.25;4897159;29;19934;-83
2022/04/29 02:24:45;;;;;;;;;;;;;;;12.53;74.32;95343.69;4899469;29;19934;-83
2022/04/29 02:27:12;;;;;;;;;;;;;;;12.51;75.02;95351.72;4899423;29;19927;-84
2022/04/29 02:29:38;;;;;;;;;;;;;;;12.51;74.11;95351.72;4899422;29;19927;-85
2022/04/29 02:32:07;;;;;;;;;;;;;;;12.58;74.86;95352.84;4899259;29;19927;-84
2022/04/29 02:34:36;;;;;;;;;;;;;;;12.60;74.38;95347.47;4897316;29;19935;-83
2022/04/29 02:37:03;;;;;;;;;;;;;;;12.55;74.22;95353.13;4899484;29;20261;-81
2022/04/29 02:39:30;;;;;;;;;;;;;;;12.58;74.39;95354.66;4899606;29;19935;-83
2022/04/29 02:41:56;;;;;;;;;;;;;;;12.52;75.00;95352.56;4899265;29;20315;-83
2022/04/29 02:44:23;;;;;;;;;;;;;;;12.51;75.98;95353.50;4899312;29;19935;-83
2022/04/29 02:49:34;;;;;;;;;;;;;;;12.45;76.01;95356.69;4899290;29;20018;-83
2022/04/29 02:52:01;;;;;;;;;;;;;;;12.45;78.70;95356.69;4898978;29;20394;-84
2022/04/29 02:54:28;;;;;;;;;;;;;;;12.41;76.81;95351.63;4899032;29;19927;-83
2022/04/29 02:56:54;;;;;;;;;;;;;;;12.35;77.41;95360.06;4898842;29;19928;-84
2022/04/29 02:59:21;;;;;;;;;;;;;;;12.29;78.09;95352.69;4898885;29;19943;-84
2022/04/29 03:01:48;;;;;;;;;;;;;;;12.28;78.50;95356.28;4899115;29;19927;-83
2022/04/29 03:04:15;;;;;;;;;;;;;;;12.26;77.97;95360.84;4898911;29;19928;-83
2022/04/29 03:06:43;;;;;;;;;;;;;;;12.35;78.18;95357.44;4899061;29;19928;-83
2022/04/29 03:09:10;;;;;;;;;;;;;;;12.39;77.85;95363.25;4899095;29;20410;-83
2022/04/29 03:11:36;;;;;;;;;;;;;;;12.39;78.46;95364.09;4898621;29;19938;-83
2022/04/29 03:14:03;;;;;;;;;;;;;;;12.41;77.57;95362.16;4898948;29;19931;-83
2022/04/29 03:16:30;;;;;;;;;;;;;;;12.38;76.95;95358.97;4898644;29;19928;-83
2022/04/29 03:18:57;;;;;;;;;;;;;;;12.39;77.85;95368.53;4898730;29;20307;-83
2022/04/29 03:21:23;;;;;;;;;;;;;;;12.48;77.24;95367.78;4898868;29;19931;-83
2022/04/29 03:23:51;;;;;;;;;;;;;;;12.57;76.88;95366.16;4898582;29;19928;-83
2022/04/29 03:26:18;;;;;;;;;;;;;;;12.61;76.68;95370.19;4896621;29;19928;-83
2022/04/29 03:28:45;;;;;;;;;;;;;;;12.54;77.52;95366.41;4898646;29;19942;-83
2022/04/29 03:31:11;;;;;;;;;;;;;;;12.46;77.05;95364.44;4896716;29;19931;-83
2022/04/29 03:33:38;;;;;;;;;;;;;;;12.40;77.46;95371.03;4897359;29;19927;-83
2022/04/29 03:36:05;;;;;;;;;;;;;;;12.49;78.13;95366.81;4898463;29;19928;-83
2022/04/29 03:38:31;;;;;;;;;;;;;;;12.50;78.49;95367.66;4898348;29;19927;-83
2022/04/29 03:40:59;;;;;;;;;;;;;;;12.58;77.82;95365.19;4898252;29;20383;-83
2022/04/29 03:43:27;;;;;;;;;;;;;;;12.64;77.69;95367.28;4898626;29;19932;-83
2022/04/29 03:45:54;;;;;;;;;;;;;;;12.61;77.54;95372.81;4898364;29;20413;-83
2022/04/29 03:48:21;;;;;;;;;;;;;;;12.61;76.91;95373.66;4898197;29;19935;-83
2022/04/29 03:50:48;;;;;;;;;;;;;;;12.50;77.72;95368.47;4898340;29;19928;-83
2022/04/29 03:53:14;;;;;;;;;;;;;;;12.52;78.55;95371.81;4899039;29;19928;-84
2022/04/29 03:55:41;;;;;;;;;;;;;;;12.58;78.80;95373.09;4899592;29;20022;-84
2022/04/29 03:58:09;;;;;;;;;;;;;;;12.55;78.78;95375.97;4898996;29;19927;-83
2022/04/29 04:00:35;;;;;;;;;;;;;;;12.61;77.87;95384.19;4899448;29;19928;-84
2022/04/29 04:03:05;;;;;;;;;;;;;;;12.66;78.33;95375.88;4899482;29;19940;-84
2022/04/29 04:05:31;;;;;;;;;;;;;;;12.66;76.92;95391.69;4899103;29;20395;-81
2022/04/29 04:07:58;;;;;;;;;;;;;;;12.69;77.70;95386.16;4899418;29;19928;-82
2022/04/29 04:10:26;;;;;;;;;;;;;;;12.78;77.26;95393.28;4898837;29;20368;-84
2022/04/29 04:12:53;;;;;;;;;;;;;;;12.75;76.60;95396.19;4898761;29;20415;-81
2022/04/29 04:15:21;;;;;;;;;;;;;;;12.79;77.55;95397.59;4899688;29;19934;-81
2022/04/29 04:20:51;;;;;;;;;;;;;;;12.80;77.91;95403.69;4898189;29;19930;-83
2022/04/29 04:23:17;;;;;;;;;;;;;;;12.73;77.81;95392.03;4899003;29;20394;-83
2022/04/29 04:25:44;;;;;;;;;;;;;;;12.77;78.40;95398.69;4898732;29;20022;-85
2022/04/29 04:28:13;;;;;;;;;;;;;;;12.65;78.85;95393.50;4898617;29;19927;-83
2022/04/29 04:30:41;;;;;;;;;;;;;;;12.59;80.01;95394.00;4897762;29;19928;-85
2022/04/29 04:33:08;;;;;;;;;;;;;;;12.60;79.78;95392.22;4897463;29;19928;-83
2022/04/29 04:35:34;;;;;;;;;;;;;;;12.55;79.98;95395.25;4897594;29;19927;-83
2022/04/29 04:38:01;;;;;;;;;;;;;;;12.49;80.11;95393.13;4897713;29;19934;-84
2022/04/29 04:40:27;;;;;;;;;;;;;;;12.47;80.15;95395.06;4897374;29;19942;-84
2022/04/29 04:42:54;;;;;;;;;;;;;;;12.53;80.36;95396.34;4897562;29;19927;-84
2022/04/29 04:45:21;;;;;;;;;;;;;;;12.49;80.76;95398.41;4901230;29;19928;-83
2022/04/29 04:47:49;;;;;;;;;;;;;;;12.52;80.40;95400.78;4901954;29;20275;-83
2022/04/29 04:50:15;;;;;;;;;;;;;;;12.55;79.97;95394.41;4901423;29;19927;-83
2022/04/29 04:52:45;;;;;;;;;;;;;;;12.60;80.13;95402.75;4902254;29;19933;-83
2022/04/29 04:55:12;;;;;;;;;;;;;;;12.70;80.56;95386.03;4901734;29;20381;-83
2022/04/29 04:57:38;;;;;;;;;;;;;;;12.70;80.26;95398.34;4901277;29;19927;-84
2022/04/29 05:00:06;;;;;;;;;;;;;;;12.74;79.96;95391.06;4897874;29;20368;-83
2022/04/29 05:02:32;;;;;;;;;;;;;;;12.78;79.81;95385.38;4900656;29;19934;-83
2022/04/29 05:05:00;;;;;;;;;;;;;;;12.85;79.02;95390.97;4901309;29;19927;-83
2022/04/29 05:07:27;;;;;;;;;;;;;;;12.98;79.83;95387.13;4900835;29;19932;-83
2022/04/29 05:09:53;;;;;;;;;;;;;;;13.15;78.48;95379.56;4897453;29;19987;-83
2022/04/29 05:12:20;;;;;;;;;;;;;;;13.29;77.99;95387.97;4884889;29;19934;-84
2022/04/29 05:14:47;;;;;;;;;;;;;;;13.37;77.62;95378.56;4849210;29;19935;-83
2022/04/29 05:17:13;;;;;;;;;;;;;;;13.44;77.42;95380.53;4894549;29;19934;-82
2022/04/29 05:19:40;;;;;;;;;;;;;;;13.39;77.69;95384.53;4901188;29;20387;-83
2022/04/29 05:22:08;;;;;;;;;;;;;;;13.35;78.33;95393.69;4901982;29;19927;-84
2022/04/29 05:24:34;;;;;;;;;;;;;;;13.28;78.88;95393.38;4901813;29;20402;-84
2022/04/29 05:27:01;;;;;;;;;;;;;;;13.22;79.16;95396.53;4902109;29;19927;-83
2022/04/29 05:29:28;;;;;;;;;;;;;;;13.15;79.39;95392.75;4901772;29;19931;-83
2022/04/29 05:31:54;;;;;;;;;;;;;;;13.26;82.75;95388.22;4901760;29;19928;-85
2022/04/29 05:34:21;;;;;;;;;;;;;;;13.17;79.72;95385.53;4901780;29;19927;-83
2022/04/29 05:43:10;;;;;;;;;;;;;;;13.11;81.26;95397.44;4901530;29;20447;-84
2022/04/29 05:45:37;;;;;;;;;;;;;;;13.14;80.38;95381.38;4868440;29;20394;-85
2022/04/29 05:48:03;;;;;;;;;;;;;;;13.21;80.16;95382.53;4901996;29;19928;-85
2022/04/29 05:50:30;;;;;;;;;;;;;;;13.20;79.74;95395.84;4901791;29;19931;-86
2022/04/29 05:52:57;;;;;;;;;;;;;;;13.32;81.35;95400.06;4901636;29;19928;-86
2022/04/29 05:55:24;;;;;;;;;;;;;;;13.28;80.57;95398.63;4900533;29;19928;-86
2022/04/29 05:57:50;;;;;;;;;;;;;;;13.29;79.25;95401.13;4896626;29;19935;-82
2022/04/29 06:00:19;;;;;;;;;;;;;;;13.26;80.50;95400.56;4896979;29;19928;-83
2022/04/29 06:02:46;;;;;;;;;;;;;;;13.36;80.25;95409.38;4901178;29;19983;-85
2022/04/29 06:11:19;;;;;;;;;;;;;;;13.56;78.75;95418.13;4897834;29;19930;-84
2022/04/29 06:13:45;;;;;;;;;;;;;;;13.58;77.90;95421.47;4899068;29;19928;-84
2022/04/29 06:16:13;;;;;;;;;;;;;;;13.54;79.05;95414.81;4899992;29;19928;-85
2022/04/29 06:18:40;;;;;;;;;;;;;;;13.49;78.38;95417.84;4899338;29;20022;-84
2022/04/29 06:21:07;;;;;;;;;;;;;;;13.55;79.25;95419.09;4899639;29;19927;-84
2022/04/29 06:23:33;;;;;;;;;;;;;;;13.62;80.19;95413.19;4899005;29;19927;-84
2022/04/29 06:26:00;;;;;;;;;;;;;;;13.60;78.19;95419.56;4899764;29;19928;-85
2022/04/29 06:28:26;;;;;;;;;;;;;;;13.62;78.46;95421.09;4899167;29;19934;-84
2022/04/29 06:30:53;;;;;;;;;;;;;;;13.68;79.45;95427.63;4897181;29;20277;-84
2022/04/29 06:33:21;;;;;;;;;;;;;;;13.74;77.98;95419.16;4898980;29;19938;-84
2022/04/29 06:35:50;;;;;;;;;;;;;;;13.91;80.24;95417.66;4899301;29;19937;-84
2022/04/29 06:38:16;;;;;;;;;;;;;;;13.97;78.21;95421.56;4899546;29;19928;-84
2022/04/29 06:40:43;;;;;;;;;;;;;;;13.96;76.26;95420.72;4899164;29;20283;-84
2022/04/29 06:43:09;;;;;;;;;;;;;;;13.85;77.79;95418.19;4899009;29;19928;-84
2022/04/29 06:45:36;;;;;;;;;;;;;;;13.84;76.58;95416.53;4898774;29;20288;-85
2022/04/29 06:48:03;;;;;;;;;;;;;;;13.89;76.21;95422.25;4898770;29;19928;-83
2022/04/29 06:50:31;;;;;;;;;;;;;;;13.90;75.95;95419.47;4899551;29;19951;-84
2022/04/29 06:52:58;;;;;;;;;;;;;;;13.91;79.18;95422.94;4900189;29;20026;-85
2022/04/29 06:55:25;;;;;;;;;;;;;;;13.96;75.77;95418.09;4899639;29;19927;-84
2022/04/29 06:57:51;;;;;;;;;;;;;;;14.13;79.06;95412.09;4880294;29;19927;-85
2022/04/29 07:00:19;;;;;;;;;;;;;;;14.32;75.77;95410.44;4879841;29;19928;-84
2022/04/29 07:02:46;;;;;;;;;;;;;;;14.40;74.19;95423.78;4878089;29;20424;-84
2022/04/29 07:05:12;;;;;;;;;;;;;;;14.56;79.53;95418.78;4880057;29;19935;-85
2022/04/29 07:07:40;;;;;;;;;;;;;;;14.63;72.97;95424.34;4879970;29;19932;-84
2022/04/29 07:10:07;;;;;;;;;;;;;;;14.73;72.96;95420.69;4879855;29;20299;-84
2022/04/29 07:12:39;;;;;;;;;;;;;;;14.83;72.02;95416.25;4879637;29;19928;-84
2022/04/29 07:15:07;;;;;;;;;;;;;;;14.88;72.19;95413.16;4879641;29;20376;-84
2022/04/29 07:17:33;;;;;;;;;;;;;;;14.99;71.40;95412.97;4879569;29;19935;-84
2022/04/29 07:20:00;;;;;;;;;;;;;;;15.04;70.39;95413.41;4879457;29;19992;-84
2022/04/29 07:22:26;;;;;;;;;;;;;;;15.06;69.64;95421.19;4880129;29;19928;-84
2022/04/29 07:24:54;;;;;;;;;;;;;;;15.24;70.13;95419.44;4894413;29;19928;-85
2022/04/29 07:30:24;;;;;;;;;;;;;;;15.41;70.32;95412.53;4880317;29;19936;-85
2022/04/29 07:32:50;;;;;;;;;;;;;;;15.48;68.45;95414.44;4879404;29;19935;-84
2022/04/29 07:43:30;;;;;;;;;;;;;;;16.13;66.90;95410.88;4879137;29;19934;-84
2022/04/29 07:45:59;;;;;;;;;;;;;;;16.30;65.24;95418.81;4879180;29;20376;-85
2022/04/29 07:48:27;;;;;;;;;;;;;;;16.33;63.37;95417.69;4878437;29;21328;-84
2022/04/29 07:50:54;;;;;;;;;;;;;;;16.44;63.21;95425.38;4879376;29;19928;-85
2022/04/29 07:53:20;;;;;;;;;;;;;;;16.58;62.77;95427.50;4880295;29;20399;-85
2022/04/29 07:55:48;;;;;;;;;;;;;;;16.38;61.02;95421.53;4883106;29;19946;-85
2022/04/29 07:58:15;;;;;;;;;;;;;;;16.25;62.34;95422.91;4898366;29;19951;-85
2022/04/29 08:00:43;;;;;;;;;;;;;;;16.27;63.08;95416.47;4897918;29;19928;-83
2022/04/29 08:03:09;;;;;;;;;;;;;;;16.41;61.72;95418.56;4898906;29;19936;-84
2022/04/29 08:11:43;;;;;;;;;;;;;;;16.77;62.07;95415.91;4897803;29;19979;-84
2022/04/29 08:14:10;;;;;;;;;;;;;;;16.90;61.18;95408.38;4898718;29;19935;-84
2022/04/29 08:16:37;;;;;;;;;;;;;;;16.93;59.92;95415.19;4898790;29;19927;-84
2022/04/29 08:19:03;;;;;;;;;;;;;;;16.93;59.01;95417.84;4898735;29;20399;-83
2022/04/29 08:21:30;;;;;;;;;;;;;;;16.84;58.33;95410.81;4898996;29;19932;-84
2022/04/29 08:23:57;;;;;;;;;;;;;;;16.81;59.66;95398.72;4898998;29;19927;-84
2022/04/29 08:26:23;;;;;;;;;;;;;;;16.71;58.41;95403.28;4898890;29;19928;-84
2022/04/29 08:28:54;;;;;;;;;;;;;;;16.69;59.23;95406.06;4898451;29;19953;-84
2022/04/29 08:31:21;;;;;;;;;;;;;;;16.66;58.62;95409.03;4898895;29;20319;-85
2022/04/29 08:33:47;;;;;;;;;;;;;;;16.69;57.05;95407.88;4898359;29;19927;-84
2022/04/29 08:36:15;;;;;;;;;;;;;;;16.62;56.39;95402.34;4898802;29;19928;-84
2022/04/29 08:38:42;;;;;;;;;;;;;;;16.64;57.30;95402.19;4898722;29;19928;-83
2022/04/29 08:41:10;;;;;;;;;;;;;;;16.62;56.18;95397.06;4898376;29;20097;-83
2022/04/29 08:43:39;;;;;;;;;;;;;;;16.60;57.09;95403.50;4896779;29;19931;-84
2022/04/29 08:46:08;;;;;;;;;;;;;;;16.53;58.02;95395.34;4898078;29;19928;-84
2022/04/29 08:48:36;;;;;;;;;;;;;;;16.45;57.98;95389.97;4897232;29;19928;-84
2022/04/29 08:51:03;;;;;;;;;;;;;;;16.42;57.78;95390.25;4897082;29;19931;-84
2022/04/29 08:53:29;;;;;;;;;;;;;;;16.27;57.74;95387.34;4897492;29;19938;-84
2022/04/29 08:58:41;;;;;;;;;;;;;;;16.28;60.84;95386.34;4897145;29;19983;-84
2022/04/29 09:01:10;;;;;;;;;;;;;;;16.38;61.60;95386.25;4897316;29;19979;-84
2022/04/29 09:03:37;;;;;;;;;;;;;;;16.47;60.52;95382.69;4897145;29;19928;-84
2022/04/29 09:06:04;;;;;;;;;;;;;;;16.52;60.67;95385.72;4896992;29;19932;-83
2022/04/29 09:08:38;;;;;;;;;;;;;;;16.46;59.05;95380.19;4896842;29;19951;-83
2022/04/29 09:11:05;;;;;;;;;;;;;;;16.57;59.70;95379.97;4879176;29;19934;-83
2022/04/29 09:13:35;;;;;;;;;;;;;;;16.61;59.36;95376.84;4896848;29;20375;-83
2022/04/29 09:16:04;;;;;;;;;;;;;;;16.62;58.69;95382.97;4897370;29;19928;-84
2022/04/29 09:18:33;;;;;;;;;;;;;;;16.65;58.16;95380.84;4896806;29;19971;-81
2022/04/29 09:21:02;;;;;;;;;;;;;;;16.78;56.62;95382.31;4896742;29;19934;-83
2022/04/29 09:23:29;;;;;;;;;;;;;;;16.89;57.65;95389.97;4897233;29;19962;-84
2022/04/29 09:25:58;;;;;;;;;;;;;;;16.98;57.14;95381.91;4896876;29;19927;-84
2022/04/29 09:28:25;;;;;;;;;;;;;;;17.00;57.01;95379.94;4897009;29;20387;-84
2022/04/29 09:30:55;;;;;;;;;;;;;;;17.17;57.01;95375.56;4897730;29;19928;-84
2022/04/29 09:33:22;;;;;;;;;;;;;;;17.20;56.97;95375.22;4901105;29;19927;-84
2022/04/29 09:35:50;;;;;;;;;;;;;;;17.24;55.41;95375.75;4901446;29;19935;-84
2022/04/29 09:41:04;;;;;;;;;;;;;;;17.28;56.47;95382.38;4901276;29;19987;-85
2022/04/29 09:43:34;;;;;;;;;;;;;;;17.40;55.97;95375.00;4900183;29;19982;-84
2022/04/29 09:46:10;;;;;;;;;;;;;;;17.39;55.97;95371.50;4900042;29;19934;-85
2022/04/29 09:48:51;;;;;;;;;;;;;;;17.43;54.79;95379.97;4901275;29;19985;-84
2022/04/29 09:51:38;;;;;;;;;;;;;;;17.48;52.92;95367.06;4901011;29;20291;-85
2022/04/29 09:54:08;;;;;;;;;;;;;;;17.67;52.65;95381.91;4901095;29;19927;-86
2022/04/29 09:56:35;;;;;;;;;;;;;;;17.72;53.32;95367.16;4901448;29;19927;-85
2022/04/29 09:59:01;;;;;;;;;;;;;;;17.74;52.07;95369.66;4900935;29;19928;-84
2022/04/29 10:01:29;;;;;;;;;;;;;;;17.65;51.97;95369.63;4883732;29;19950;-85
2022/04/29 10:03:56;;;;;;;;;;;;;;;17.63;51.19;95357.47;4902015;29;19928;-85
2022/04/29 10:06:26;;;;;;;;;;;;;;;17.77;52.63;95362.19;4901182;29;19935;-85
2022/04/29 10:14:59;;;;;;;;;;;;;;;17.90;51.24;95349.28;4900250;29;19976;-84
2022/04/29 10:22:59;;;;;;;;;;;;;;;18.05;51.51;95341.50;4900732;29;19938;-86
2022/04/29 10:25:27;;;;;;;;;;;;;;;18.47;57.72;95346.66;4900814;29;19932;-83
2022/04/29 10:27:54;;;;;;;;;;;;;;;18.95;56.46;95326.31;4901307;29;19931;-84
2022/04/29 10:30:27;;;;;;;;;;;;;;;19.48;48.68;95328.28;4900791;29;19939;-82
2022/04/29 10:32:59;;;;;;;;;;;;;;;19.62;48.28;95326.75;4901097;29;19935;-83
2022/04/29 10:35:45;;;;;;;;;;;;;;;19.61;47.30;95327.75;4901060;29;19932;-85
2022/04/29 10:38:14;;;;;;;;;;;;;;;19.38;47.40;95338.31;4900928;29;19976;-86
2022/04/29 10:40:41;;;;;;;;;;;;;;;19.28;48.15;95329.69;4900219;29;20392;-89
2022/04/29 10:49:20;;;;;;;;;;;;;;;18.98;47.56;95319.84;4898748;29;20350;-86
2022/04/29 10:51:48;;;;;;;;;;;;;;;18.95;46.77;95318.34;4899222;29;19928;-85
2022/04/29 10:54:16;;;;;;;;;;;;;;;19.04;47.20;95312.00;4899069;29;19927;-85
2022/04/29 10:56:43;;;;;;;;;;;;;;;18.99;47.61;95305.53;4899649;29;19927;-85
2022/04/29 10:59:21;;;;;;;;;;;;;;;18.98;47.20;95303.88;4899234;29;20276;-85
2022/04/29 11:02:07;;;;;;;;;;;;;;;19.02;47.67;95305.19;4898487;29;19928;-85
2022/04/29 11:04:45;;;;;;;;;;;;;;;19.09;47.68;95299.03;4898765;29;19935;-85
2022/04/29 11:07:30;;;;;;;;;;;;;;;19.04;47.78;95298.69;4899160;29;19931;-87
2022/04/29 11:09:58;;;;;;;;;;;;;;;19.06;47.06;95299.34;4899411;29;19975;-87
2022/04/29 11:12:29;;;;;;;;;;;;;;;18.99;47.00;95295.72;4898432;29;19927;-86
2022/04/29 11:15:05;;;;;;;;;;;;;;;18.97;48.07;95283.59;4899975;29;19935;-84
2022/04/29 11:17:35;;;;;;;;;;;;;;;18.94;47.22;95281.28;4899925;29;19938;-86
2022/04/29 11:20:13;;;;;;;;;;;;;;;18.91;47.36;95281.63;4899526;29;20442;-86
2022/04/29 11:40:58;;;;;;;;;;;;;;;19.12;46.73;95269.41;4898388;29;19930;-84
2022/04/29 11:43:25;;;;;;;;;;;;;;;19.15;47.58;95266.41;4899055;29;19986;-85
2022/04/29 11:46:13;;;;;;;;;;;;;;;19.10;47.61;95263.44;4899085;29;19932;-85
2022/04/29 11:48:50;;;;;;;;;;;;;;;18.83;47.95;95263.88;4878471;29;19935;-85
2022/04/29 11:51:17;;;;;;;;;;;;;;;18.71;48.04;95259.91;4877221;29;19934;-85
2022/04/29 11:53:52;;;;;;;;;;;;;;;18.82;48.53;95259.56;4845418;29;19991;-85
2022/04/29 11:56:20;;;;;;;;;;;;;;;18.93;49.32;95264.50;4876503;29;19928;-85
2022/04/29 11:58:47;;;;;;;;;;;;;;;18.92;48.42;95260.19;4877013;29;19928;-85
2022/04/29 12:01:15;;;;;;;;;;;;;;;19.02;46.77;95263.47;4876905;29;19939;-85
2022/04/29 12:03:46;;;;;;;;;;;;;;;19.16;47.83;95252.09;4876824;29;19928;-85
2022/04/29 12:06:13;;;;;;;;;;;;;;;19.30;48.22;95249.69;4861175;29;19935;-84
2022/04/29 12:08:40;;;;;;;;;;;;;;;19.37;47.99;95248.84;4876951;29;19928;-85
2022/04/29 12:11:08;;;;;;;;;;;;;;;19.37;46.94;95250.66;4877054;29;20332;-85
2022/04/29 12:13:36;;;;;;;;;;;;;;;19.37;47.21;95246.19;4876807;29;19928;-85
2022/04/29 12:16:04;;;;;;;;;;;;;;;19.36;47.83;95241.84;4876715;29;19935;-85
2022/04/29 12:18:38;;;;;;;;;;;;;;;19.30;47.18;95250.53;4878200;29;20026;-85
2022/04/29 12:21:05;;;;;;;;;;;;;;;19.43;46.99;95252.63;4876721;29;19927;-85
2022/04/29 12:23:33;;;;;;;;;;;;;;;19.53;46.04;95250.59;4876686;29;19932;-85
2022/04/29 12:26:01;;;;;;;;;;;;;;;19.49;45.50;95243.94;4889933;29;19931;-85
2022/04/29 12:28:28;;;;;;;;;;;;;;;19.47;47.32;95241.47;4897417;29;20467;-85
2022/04/29 12:36:31;;;;;;;;;;;;;;;19.42;47.04;95237.66;4897542;29;19935;-85
2022/04/29 12:39:04;;;;;;;;;;;;;;;19.47;46.49;95225.47;4897852;29;20340;-85
2022/04/29 12:41:32;;;;;;;;;;;;;;;19.49;46.27;95212.00;4897834;29;19928;-85
2022/04/29 12:44:07;;;;;;;;;;;;;;;19.51;46.24;95212.66;4897559;29;19927;-85
2022/04/29 12:46:35;;;;;;;;;;;;;;;19.51;45.73;95209.97;4897539;29;19934;-85
2022/04/29 12:49:02;;;;;;;;;;;;;;;19.55;46.08;95213.97;4897440;29;19931;-84
2022/04/29 12:51:31;;;;;;;;;;;;;;;19.55;45.94;95210.50;4897758;29;19927;-85
2022/04/29 12:53:58;;;;;;;;;;;;;;;19.56;46.72;95201.50;4897648;29;19927;-85
2022/04/29 12:56:29;;;;;;;;;;;;;;;19.52;45.68;95205.50;4897302;29;19927;-84
2022/04/29 12:58:56;;;;;;;;;;;;;;;19.48;44.95;95197.84;4897567;29;20387;-84
2022/04/29 13:01:23;;;;;;;;;;;;;;;19.46;46.00;95197.22;4897200;29;20014;-84
2022/04/29 13:03:55;;;;;;;;;;;;;;;19.47;45.74;95192.72;4897318;29;20390;-85
2022/04/29 13:06:23;;;;;;;;;;;;;;;19.52;46.25;95187.69;4900819;29;19927;-84
2022/04/29 13:08:53;;;;;;;;;;;;;;;18.82;48.26;95193.09;4900924;29;19927;-85
2022/04/29 13:11:20;;;;;;;;;;;;;;;18.79;48.58;95180.13;4900997;29;19927;-85
2022/04/29 13:13:47;;;;;;;;;;;;;;;18.87;48.74;95174.78;4867662;29;19954;-84
2022/04/29 13:16:14;;;;;;;;;;;;;;;18.99;48.76;95175.22;4900675;29;19927;-85
2022/04/29 13:18:40;;;;;;;;;;;;;;;19.11;48.35;95179.16;4901237;29;20368;-87
2022/04/29 13:21:09;;;;;;;;;;;;;;;19.21;48.13;95179.75;4900835;29;19935;-86
2022/04/29 13:23:36;;;;;;;;;;;;;;;19.09;47.53;95171.34;4899986;29;19931;-86
2022/04/29 13:26:03;;;;;;;;;;;;;;;19.28;48.37;95166.56;4900780;29;19938;-86
2022/04/29 13:28:31;;;;;;;;;;;;;;;19.43;47.53;95165.63;4898502;29;19928;-85
2022/04/29 13:30:58;;;;;;;;;;;;;;;19.59;47.07;95169.19;4900762;29;20295;-85
2022/04/29 13:33:24;;;;;;;;;;;;;;;19.28;45.17;95162.06;4900507;29;20395;-85
2022/04/29 13:35:51;;;;;;;;;;;;;;;19.06;46.12;95157.53;4900622;29;19951;-85
2022/04/29 13:38:19;;;;;;;;;;;;;;;19.16;46.67;95153.66;4900632;29;19934;-86
2022/04/29 13:40:46;;;;;;;;;;;;;;;18.97;46.72;95154.09;4900568;29;20022;-85
2022/04/29 13:43:13;;;;;;;;;;;;;;;19.16;47.14;95153.66;4900387;29;19932;-85
2022/04/29 13:45:40;;;;;;;;;;;;;;;19.22;47.11;95151.31;4900757;29;19983;-85
2022/04/29 13:48:07;;;;;;;;;;;;;;;19.23;46.69;95147.63;4900422;29;19939;-85
2022/04/29 13:50:34;;;;;;;;;;;;;;;19.24;46.48;95149.28;4898231;29;20280;-85
2022/04/29 13:53:11;;;;;;;;;;;;;;;19.12;46.58;95147.06;4900257;29;19927;-86
2022/04/29 13:55:40;;;;;;;;;;;;;;;19.31;47.17;95148.41;4899842;29;19927;-85
2022/04/29 13:58:08;;;;;;;;;;;;;;;19.42;45.61;95141.84;4900339;29;20365;-84
2022/04/29 14:00:35;;;;;;;;;;;;;;;19.56;45.89;95143.75;4900012;29;19939;-86
2022/04/29 14:03:01;;;;;;;;;;;;;;;19.67;46.02;95138.03;4900389;29;20020;-86
2022/04/29 14:05:29;;;;;;;;;;;;;;;19.79;45.73;95144.56;4900440;29;20017;-81
2022/04/29 14:07:56;;;;;;;;;;;;;;;19.66;45.62;95141.69;4900129;29;19931;-85
2022/04/29 14:10:22;;;;;;;;;;;;;;;19.59;46.47;95129.25;4900204;29;20030;-85
2022/04/29 14:12:51;;;;;;;;;;;;;;;19.53;46.45;95132.59;4900249;29;19978;-85
2022/04/29 14:15:17;;;;;;;;;;;;;;;18.97;47.18;95124.03;4899811;29;19928;-85